createdAt,value
2018-02-21T00:13:10.311Z,61.67
2018-02-21T00:15:38.660Z,64.53
2018-02-21T00:18:06.259Z,62.50
2018-02-21T00:20:33.861Z,68.07
2018-02-21T00:23:01.470Z,60.75
2018-02-21T00:25:29.825Z,66.05
2018-02-21T00:27:57.401Z,63.47
2018-02-21T00:30:25.776Z,61.22
2018-02-21T00:32:54.118Z,66.03
2018-02-21T00:35:21.709Z,61.33
2018-02-21T00:37:49.291Z,58.95
2018-02-21T00:40:17.647Z,60.63
2018-02-21T00:42:45.225Z,59.53
2018-02-21T00:45:13.592Z,63.65
2018-02-21T00:47:41.939Z,60.88
2018-02-21T00:50:09.530Z,54.85
2018-02-21T00:52:37.870Z,67.15
2018-02-21T00:55:05.477Z,66.43
2018-02-21T00:57:33.809Z,67.90
2018-02-21T01:00:01.387Z,63.50
2018-02-21T01:02:28.969Z,62.45
2018-02-21T01:04:57.343Z,65.03
2018-02-21T01:07:25.701Z,63.78
2018-02-21T01:09:53.294Z,65.78
2018-02-21T01:12:21.673Z,66.07
2018-02-21T01:14:50.019Z,64.37
2018-02-21T01:17:17.663Z,66.43
2018-02-21T01:19:45.243Z,69.95
2018-02-21T01:22:12.832Z,59.38
2018-02-21T01:24:41.219Z,64.05
2018-02-21T01:27:08.825Z,70.32
2018-02-21T01:29:36.439Z,63.87
2018-02-21T01:32:04.022Z,66.85
2018-02-21T01:34:31.665Z,63.05
2018-02-21T01:36:59.239Z,69.05
2018-02-21T01:39:26.827Z,69.00
2018-02-21T01:41:54.421Z,65.55
2018-02-21T01:44:22.800Z,64.10
2018-02-21T01:46:51.149Z,68.82
2018-02-21T01:49:18.722Z,70.28
2018-02-21T01:51:46.353Z,65.43
2018-02-21T01:54:13.927Z,71.72
2018-02-21T01:56:41.521Z,62.88
2018-02-21T01:59:09.928Z,66.37
2018-02-21T02:01:37.493Z,69.07
2018-02-21T02:04:05.077Z,66.60
2018-02-21T02:06:32.676Z,66.35
2018-02-21T02:09:00.246Z,59.80
2018-02-21T02:11:28.646Z,67.80
2018-02-21T02:13:56.210Z,64.47
2018-02-21T02:16:23.795Z,62.10
2018-02-21T02:18:51.430Z,69.37
2018-02-21T02:21:19.010Z,68.22
2018-02-21T02:23:46.652Z,61.05
2018-02-21T02:26:14.230Z,63.47
2018-02-21T02:28:41.796Z,68.22
2018-02-21T02:31:09.431Z,63.42
2018-02-21T02:33:37.000Z,61.95
2018-02-21T02:36:04.579Z,59.73
2018-02-21T02:38:41.175Z,58.38
2018-02-21T02:41:08.760Z,62.38
2018-02-21T02:43:37.093Z,56.25
2018-02-21T02:46:04.699Z,62.88
2018-02-21T02:48:33.032Z,57.80
2018-02-21T02:51:00.630Z,57.80
2018-02-21T02:53:29.021Z,61.10
2018-02-21T02:55:57.376Z,67.97
2018-02-21T02:58:24.951Z,59.80
2018-02-21T03:00:53.340Z,61.28
2018-02-21T03:03:21.682Z,66.93
2018-02-21T03:05:49.258Z,61.53
2018-02-21T03:08:16.846Z,59.28
2018-02-21T03:10:44.416Z,57.88
2018-02-21T03:13:11.997Z,63.45
2018-02-21T03:15:39.607Z,59.20
2018-02-21T03:18:07.949Z,56.05
2018-02-21T03:20:35.568Z,55.47
2018-02-21T03:23:03.145Z,58.60
2018-02-21T03:25:30.725Z,62.27
2018-02-21T03:30:32.206Z,62.78
2018-02-21T03:32:59.820Z,58.05
2018-02-21T03:35:27.388Z,58.53
2018-02-21T03:37:54.950Z,55.00
2018-02-21T03:40:22.541Z,65.70
2018-02-21T03:42:50.126Z,60.10
2018-02-21T03:45:18.495Z,65.43
2018-02-21T03:47:46.058Z,66.57
2018-02-21T03:50:13.649Z,61.93
2018-02-21T03:52:41.232Z,62.40
2018-02-21T03:55:08.843Z,60.70
2018-02-21T03:57:37.218Z,64.70
2018-02-21T04:00:04.789Z,66.87
2018-02-21T04:02:33.128Z,73.07
2018-02-21T04:05:00.730Z,69.00
2018-02-21T04:07:29.077Z,71.30
2018-02-21T04:09:56.674Z,60.60
2018-02-21T04:12:25.051Z,74.35
2018-02-21T04:14:53.383Z,70.87
2018-02-21T04:17:20.951Z,76.20
2018-02-21T04:19:48.559Z,82.50
2018-02-21T04:22:16.134Z,83.65
2018-02-21T04:24:43.740Z,78.37
2018-02-21T04:27:11.317Z,76.55
2018-02-21T04:29:38.904Z,86.32
2018-02-21T04:32:06.506Z,79.15
2018-02-21T04:34:34.061Z,79.20
2018-02-21T04:37:01.662Z,81.90
2018-02-21T04:39:30.013Z,83.80
2018-02-21T04:41:57.725Z,87.50
2018-02-21T04:44:25.291Z,77.90
2018-02-21T04:46:52.948Z,81.27
2018-02-21T04:49:20.575Z,77.57
2018-02-21T04:51:48.146Z,82.60
2018-02-21T04:54:16.514Z,85.13
2018-02-21T04:56:58.968Z,78.80
2018-02-21T04:59:31.581Z,74.37
2018-02-21T05:01:59.170Z,193.32
2018-02-21T05:04:27.527Z,139.65
2018-02-21T05:06:55.117Z,92.87
2018-02-21T05:09:23.441Z,80.22
2018-02-21T05:11:51.046Z,73.05
2018-02-21T05:14:19.402Z,82.20
2018-02-21T05:16:46.980Z,71.90
2018-02-21T05:19:14.589Z,81.07
2018-02-21T05:21:43.023Z,78.18
2018-02-21T05:24:10.605Z,81.50
2018-02-21T05:26:38.214Z,79.62
2018-02-21T05:29:05.778Z,80.83
2018-02-21T05:31:33.401Z,78.27
2018-02-21T05:34:01.004Z,74.30
2018-02-21T05:36:28.579Z,65.62
2018-02-21T05:38:56.160Z,63.70
2018-02-21T05:41:23.997Z,64.72
2018-02-21T05:43:51.816Z,65.10
2018-02-21T05:46:19.585Z,67.33
2018-02-21T05:48:47.565Z,66.43
2018-02-21T05:51:15.178Z,60.17
2018-02-21T05:53:43.520Z,59.17
2018-02-21T05:56:11.103Z,62.78
2018-02-21T05:58:38.699Z,63.40
2018-02-21T06:01:06.278Z,62.97
2018-02-21T06:03:34.100Z,59.50
2018-02-21T06:06:02.447Z,62.58
2018-02-21T06:08:30.049Z,58.85
2018-02-21T06:10:58.387Z,58.70
2018-02-21T06:13:25.954Z,53.10
2018-02-21T06:15:53.543Z,57.03
2018-02-21T06:18:21.870Z,58.00
2018-02-21T06:20:49.488Z,51.55
2018-02-21T06:23:17.068Z,56.70
2018-02-21T06:25:44.671Z,51.80
2018-02-21T06:28:12.310Z,52.23
2018-02-21T06:30:40.115Z,56.20
2018-02-21T06:33:07.689Z,57.50
2018-02-21T06:35:36.028Z,55.47
2018-02-21T06:38:03.624Z,53.73
2018-02-21T06:40:31.983Z,70.20
2018-02-21T06:42:59.555Z,58.35
2018-02-21T06:45:27.924Z,67.77
2018-02-21T06:47:55.516Z,69.47
2018-02-21T06:50:23.124Z,63.80
2018-02-21T06:52:50.699Z,64.00
2018-02-21T06:55:18.291Z,60.17
2018-02-21T06:57:45.867Z,62.17
2018-02-21T07:00:13.509Z,69.30
2018-02-21T07:02:41.064Z,63.00
2018-02-21T07:05:09.398Z,71.20
2018-02-21T07:07:37.001Z,67.83
2018-02-21T07:10:05.390Z,70.57
2018-02-21T07:12:32.955Z,74.17
2018-02-21T07:15:00.541Z,73.90
2018-02-21T07:17:28.141Z,77.10
2018-02-21T07:19:55.701Z,76.03
2018-02-21T07:22:23.291Z,75.70
2018-02-21T07:24:50.890Z,76.80
2018-02-21T07:27:18.498Z,73.27
2018-02-21T07:29:46.831Z,83.07
2018-02-21T07:32:14.407Z,82.07
2018-02-21T07:34:42.011Z,89.93
2018-02-21T07:37:09.575Z,81.60
2018-02-21T07:39:37.159Z,85.10
2018-02-21T07:42:04.749Z,81.30
2018-02-21T07:44:32.352Z,81.40
2018-02-21T07:47:00.685Z,90.70
2018-02-21T07:49:28.277Z,82.53
2018-02-21T07:51:56.789Z,90.17
2018-02-21T07:54:24.376Z,84.30
2018-02-21T07:56:51.952Z,83.67
2018-02-21T07:59:19.537Z,86.70
2018-02-21T08:01:47.870Z,90.17
2018-02-21T08:04:15.470Z,81.80
2018-02-21T08:06:43.797Z,77.83
2018-02-21T08:09:11.386Z,86.53
2018-02-21T08:11:38.953Z,85.27
2018-02-21T08:14:06.532Z,89.47
2018-02-21T08:16:34.915Z,86.20
2018-02-21T08:19:03.253Z,87.43
2018-02-21T08:21:30.829Z,99.43
2018-02-21T08:23:58.427Z,107.17
2018-02-21T08:26:26.008Z,86.97
2018-02-21T08:28:53.599Z,90.30
2018-02-21T08:31:21.169Z,94.20
2018-02-21T08:33:48.774Z,88.77
2018-02-21T08:36:16.361Z,87.30
2018-02-21T08:38:43.938Z,82.57
2018-02-21T08:41:11.543Z,88.33
2018-02-21T08:43:39.128Z,90.23
2018-02-21T08:46:06.735Z,102.03
2018-02-21T08:48:34.311Z,94.67
2018-02-21T08:51:02.659Z,88.13
2018-02-21T08:53:30.293Z,119.47
2018-02-21T08:55:57.866Z,91.77
2018-02-21T08:58:25.445Z,89.63
2018-02-21T09:00:53.047Z,89.07
2018-02-21T09:03:20.601Z,91.37
2018-02-21T09:05:48.958Z,83.57
2018-02-21T09:08:16.538Z,87.80
2018-02-21T09:10:44.872Z,90.33
2018-02-21T09:13:12.458Z,79.27
2018-02-21T09:15:40.795Z,83.80
2018-02-21T09:18:08.494Z,87.73
2018-02-21T09:20:36.853Z,93.83
2018-02-21T09:23:04.423Z,81.13
2018-02-21T09:25:32.029Z,82.33
2018-02-21T09:27:59.609Z,92.47
2018-02-21T09:30:27.216Z,91.73
2018-02-21T09:32:55.569Z,82.70
2018-02-21T09:35:23.168Z,85.27
2018-02-21T09:37:51.507Z,82.67
2018-02-21T09:40:19.118Z,87.70
2018-02-21T09:42:46.715Z,88.57
2018-02-21T09:45:14.307Z,77.90
2018-02-21T09:47:41.888Z,82.70
2018-02-21T09:50:09.512Z,82.37
2018-02-21T09:52:37.093Z,81.47
2018-02-21T09:55:04.682Z,79.20
2018-02-21T09:57:32.282Z,88.90
2018-02-21T09:59:59.860Z,81.87
2018-02-21T10:02:27.464Z,87.33
2018-02-21T10:04:55.059Z,92.53
2018-02-21T10:07:22.636Z,89.13
2018-02-21T10:09:50.212Z,84.47
2018-02-21T10:12:17.831Z,86.07
2018-02-21T10:14:45.407Z,82.67
2018-02-21T10:17:12.999Z,84.07
2018-02-21T10:19:41.362Z,87.27
2018-02-21T10:22:08.929Z,90.50
2018-02-21T10:24:36.514Z,82.57
2018-02-21T10:27:04.084Z,88.90
2018-02-21T10:29:31.714Z,93.13
2018-02-21T10:32:00.061Z,82.97
2018-02-21T10:34:27.637Z,81.80
2018-02-21T10:36:55.239Z,89.73
2018-02-21T10:39:22.812Z,81.43
2018-02-21T10:41:50.395Z,88.90
2018-02-21T10:44:17.963Z,86.93
2018-02-21T10:46:45.598Z,92.00
2018-02-21T10:49:13.154Z,81.13
2018-02-21T10:51:40.721Z,81.40
2018-02-21T10:54:08.319Z,73.97
2018-02-21T10:56:35.888Z,89.00
2018-02-21T10:59:03.519Z,86.13
2018-02-21T11:01:31.083Z,84.43
2018-02-21T11:03:58.667Z,85.37
2018-02-21T11:06:27.037Z,88.60
2018-02-21T11:08:54.610Z,75.23
2018-02-21T11:11:22.180Z,72.73
2018-02-21T11:13:50.541Z,88.90
2018-02-21T11:16:18.130Z,83.67
2018-02-21T11:18:46.492Z,69.07
2018-02-21T11:21:14.824Z,87.07
2018-02-21T11:23:42.470Z,78.03
2018-02-21T11:26:10.039Z,87.57
2018-02-21T11:28:37.620Z,84.57
2018-02-21T11:31:05.217Z,91.80
2018-02-21T11:33:33.555Z,95.63
2018-02-21T11:36:01.161Z,89.13
2018-02-21T11:38:29.497Z,90.70
2018-02-21T11:40:57.085Z,86.97
2018-02-21T11:43:25.495Z,87.10
2018-02-21T11:45:53.089Z,82.13
2018-02-21T11:48:20.719Z,92.80
2018-02-21T11:50:48.297Z,87.73
2018-02-21T11:53:15.927Z,79.30
2018-02-21T11:55:44.262Z,73.20
2018-02-21T11:58:11.824Z,72.20
2018-02-21T12:00:39.426Z,76.13
2018-02-21T12:03:07.021Z,76.73
2018-02-21T12:05:34.624Z,73.37
2018-02-21T12:08:02.199Z,71.00
2018-02-21T12:10:30.581Z,81.20
2018-02-21T12:12:58.141Z,75.97
2018-02-21T12:15:26.462Z,78.23
2018-02-21T12:17:54.071Z,78.47
2018-02-21T12:20:22.425Z,82.77
2018-02-21T12:22:50.039Z,75.20
2018-02-21T12:25:17.607Z,75.47
2018-02-21T12:27:45.173Z,66.50
2018-02-21T12:30:12.764Z,72.10
2018-02-21T12:32:42.926Z,69.80
2018-02-21T12:35:10.539Z,63.97
2018-02-21T12:37:38.139Z,70.27
2018-02-21T12:40:05.744Z,77.40
2018-02-21T12:42:33.330Z,65.53
2018-02-21T12:45:00.917Z,71.50
2018-02-21T12:47:29.267Z,60.87
2018-02-21T12:49:56.840Z,62.87
2018-02-21T12:52:25.210Z,60.30
2018-02-21T12:54:52.774Z,61.13
2018-02-21T12:57:20.492Z,68.83
2018-02-21T12:59:48.100Z,62.40
2018-02-21T13:02:16.458Z,69.73
2018-02-21T13:04:44.092Z,73.40
2018-02-21T13:07:11.658Z,70.07
2018-02-21T13:09:39.216Z,67.63
2018-02-21T13:12:06.819Z,64.60
2018-02-21T13:14:35.186Z,71.57
2018-02-21T13:17:02.766Z,70.83
2018-02-21T13:19:31.108Z,73.20
2018-02-21T13:21:58.693Z,64.70
2018-02-21T13:24:26.261Z,65.37
2018-02-21T13:26:54.644Z,57.87
2018-02-21T13:29:22.974Z,63.57
2018-02-21T13:31:50.546Z,60.23
2018-02-21T13:34:18.143Z,60.53
2018-02-21T13:36:46.479Z,67.97
2018-02-21T13:39:14.136Z,61.73
2018-02-21T13:41:41.673Z,67.17
2018-02-21T13:44:09.233Z,61.83
2018-02-21T13:46:36.824Z,61.83
2018-02-21T13:49:04.391Z,57.10
2018-02-21T13:51:31.992Z,59.97
2018-02-21T13:53:59.587Z,63.00
2018-02-21T13:56:27.154Z,59.60
2018-02-21T13:58:54.763Z,63.07
2018-02-21T14:01:23.092Z,58.70
2018-02-21T14:03:50.669Z,63.97
2018-02-21T14:06:18.286Z,67.90
2018-02-21T14:08:45.857Z,58.47
2018-02-21T14:11:13.434Z,66.87
2018-02-21T14:13:41.037Z,60.70
2018-02-21T14:16:09.379Z,64.90
2018-02-21T14:18:36.990Z,58.43
2018-02-21T14:21:04.555Z,58.07
2018-02-21T14:23:32.163Z,63.90
2018-02-21T14:25:59.726Z,60.80
2018-02-21T14:28:27.305Z,66.60
2018-02-21T14:30:54.926Z,63.27
2018-02-21T14:33:22.486Z,64.23
2018-02-21T14:35:50.076Z,65.70
2018-02-21T14:38:17.663Z,64.67
2018-02-21T14:40:46.034Z,84.50
2018-02-21T14:43:14.376Z,64.30
2018-02-21T14:45:41.932Z,59.17
2018-02-21T14:48:09.554Z,61.60
2018-02-21T14:50:37.131Z,60.37
2018-02-21T14:53:04.744Z,59.30
2018-02-21T14:55:33.100Z,61.97
2018-02-21T14:58:00.714Z,72.57
2018-02-21T15:00:28.346Z,58.53
2018-02-21T15:02:56.676Z,60.03
2018-02-21T15:05:24.245Z,54.70
2018-02-21T15:07:51.873Z,64.83
2018-02-21T15:10:19.442Z,66.90
2018-02-21T15:12:47.008Z,72.13
2018-02-21T15:15:14.624Z,57.10
2018-02-21T15:17:42.975Z,58.87
2018-02-21T15:22:45.167Z,64.93
2018-02-21T15:25:12.759Z,59.57
2018-02-21T15:27:41.095Z,67.33
2018-02-21T15:30:08.698Z,65.57
2018-02-21T15:32:37.039Z,69.57
2018-02-21T15:35:04.637Z,56.40
2018-02-21T15:37:33.009Z,61.27
2018-02-21T15:40:01.373Z,58.53
2018-02-21T15:42:28.957Z,66.20
2018-02-21T15:44:57.333Z,73.53
2018-02-21T15:47:25.664Z,57.33
2018-02-21T15:49:53.268Z,61.10
2018-02-21T15:52:21.613Z,64.27
2018-02-21T15:54:49.191Z,61.37
2018-02-21T15:57:17.542Z,67.40
2018-02-21T15:59:45.122Z,63.43
2018-02-21T16:02:12.681Z,67.17
2018-02-21T16:04:40.277Z,64.97
2018-02-21T16:07:07.866Z,60.50
2018-02-21T16:09:35.429Z,66.83
2018-02-21T16:12:03.026Z,59.13
2018-02-21T16:14:30.580Z,60.43
2018-02-21T16:16:58.181Z,59.67
2018-02-21T16:19:25.765Z,62.40
2018-02-21T16:21:53.370Z,59.80
2018-02-21T16:24:21.704Z,65.73
2018-02-21T16:26:49.271Z,73.57
2018-02-21T16:29:16.867Z,58.07
2018-02-21T16:31:44.435Z,64.37
2018-02-21T16:34:12.767Z,61.53
2018-02-21T16:36:40.389Z,56.80
2018-02-21T16:39:07.981Z,72.53
2018-02-21T16:41:35.542Z,60.20
2018-02-21T16:44:03.107Z,61.37
2018-02-21T16:46:30.697Z,64.07
2018-02-21T16:48:58.260Z,63.50
2018-02-21T16:51:25.871Z,67.33
2018-02-21T16:53:58.991Z,66.57
2018-02-21T16:56:26.607Z,68.93
2018-02-21T16:58:54.197Z,70.50
2018-02-21T17:01:21.799Z,55.90
2018-02-21T17:03:50.204Z,60.60
2018-02-21T17:06:17.761Z,61.40
2018-02-21T17:08:45.351Z,65.47
2018-02-21T17:11:12.945Z,68.80
2018-02-21T17:13:41.516Z,65.30
2018-02-21T17:16:09.090Z,56.00
2018-02-21T17:18:36.683Z,66.73
2018-02-21T17:21:04.296Z,67.27
2018-02-21T17:23:31.893Z,76.10
2018-02-21T17:26:00.273Z,72.33
2018-02-21T17:28:27.900Z,70.60
2018-02-21T17:30:55.551Z,79.53
2018-02-21T17:33:23.144Z,59.93
2018-02-21T17:35:50.722Z,60.57
2018-02-21T17:38:18.374Z,63.80
2018-02-21T17:43:50.807Z,63.63
2018-02-21T17:46:18.357Z,67.63
2018-02-21T17:48:45.930Z,67.80
2018-02-21T17:51:13.542Z,64.97
2018-02-21T17:53:41.909Z,66.73
2018-02-21T17:56:10.291Z,65.20
2018-02-21T17:58:38.652Z,65.27
2018-02-21T18:01:06.252Z,68.25
2018-02-21T18:03:33.855Z,61.37
2018-02-21T18:06:01.484Z,73.25
2018-02-21T18:08:29.096Z,66.32
2018-02-21T18:10:56.673Z,59.88
2018-02-21T18:13:25.034Z,72.97
2018-02-21T18:15:52.623Z,194.43
2018-02-21T18:18:21.006Z,77.15
2018-02-21T18:20:49.347Z,84.78
2018-02-21T18:23:16.938Z,80.20
2018-02-21T18:25:45.300Z,74.90
2018-02-21T18:28:12.882Z,74.60
2018-02-21T18:30:41.233Z,70.83
2018-02-21T18:33:08.818Z,73.97
2018-02-21T18:35:37.193Z,78.90
2018-02-21T18:38:05.558Z,66.43
2018-02-21T18:40:33.934Z,70.47
2018-02-21T18:43:01.759Z,74.72
2018-02-21T18:45:29.307Z,70.70
2018-02-21T18:47:56.912Z,69.78
2018-02-21T18:50:24.474Z,75.50
2018-02-21T18:52:52.078Z,69.30
2018-02-21T18:55:19.642Z,74.47
2018-02-21T18:57:47.256Z,57.90
2018-02-21T19:00:14.828Z,76.40
2018-02-21T19:02:43.189Z,71.62
2018-02-21T19:05:10.837Z,69.32
2018-02-21T19:07:38.428Z,69.17
2018-02-21T19:10:06.781Z,58.13
2018-02-21T19:12:34.362Z,70.72
2018-02-21T19:15:01.939Z,66.73
2018-02-21T19:17:29.577Z,68.37
2018-02-21T19:19:57.184Z,71.87
2018-02-21T19:22:24.760Z,57.75
2018-02-21T19:24:52.341Z,66.18
2018-02-21T19:27:19.945Z,65.85
2018-02-21T19:29:47.575Z,60.80
2018-02-21T19:32:15.193Z,61.03
2018-02-21T19:34:42.758Z,61.25
2018-02-21T19:37:10.375Z,61.03
2018-02-21T19:39:38.768Z,55.00
2018-02-21T19:42:06.337Z,51.72
2018-02-21T19:44:33.909Z,59.67
2018-02-21T19:47:01.568Z,63.05
2018-02-21T19:49:29.155Z,60.30
2018-02-21T19:51:56.735Z,62.40
2018-02-21T19:54:24.347Z,56.45
2018-02-21T19:56:51.913Z,50.75
2018-02-21T19:59:19.510Z,58.67
2018-02-21T20:01:47.108Z,66.00
2018-02-21T20:04:14.737Z,55.72
2018-02-21T20:06:42.320Z,45.17
2018-02-21T20:09:10.690Z,54.90
2018-02-21T20:11:39.042Z,72.35
2018-02-21T20:14:06.656Z,95.05
2018-02-21T20:16:34.270Z,82.20
2018-02-21T20:19:01.852Z,161.90
2018-02-21T20:21:30.223Z,158.50
2018-02-21T20:23:57.792Z,68.30
2018-02-21T20:26:26.178Z,74.55
2018-02-21T20:28:54.524Z,56.03
2018-02-21T20:31:22.102Z,68.43
2018-02-21T20:33:50.461Z,70.90
2018-02-21T20:36:18.058Z,62.40
2018-02-21T20:38:46.450Z,62.80
2018-02-21T20:41:14.031Z,63.30
2018-02-21T20:43:41.621Z,79.05
2018-02-21T20:46:09.217Z,54.85
2018-02-21T20:48:37.590Z,54.53
2018-02-21T20:51:05.926Z,56.95
2018-02-21T20:53:33.511Z,54.42
2018-02-21T20:56:01.117Z,56.65
2018-02-21T20:58:28.703Z,50.45
2018-02-21T21:03:30.309Z,53.53
2018-02-21T21:05:58.665Z,47.42
2018-02-21T21:08:26.235Z,55.65
2018-02-21T21:10:53.840Z,54.53
2018-02-21T21:13:21.454Z,49.45
2018-02-21T21:15:49.026Z,62.47
2018-02-21T21:18:17.415Z,57.30
2018-02-21T21:20:45.741Z,71.57
2018-02-21T21:23:13.328Z,54.90
2018-02-21T21:25:40.936Z,57.90
2018-02-21T21:28:08.524Z,58.08
2018-02-21T21:30:36.132Z,64.28
2018-02-21T21:33:04.491Z,61.70
2018-02-21T21:35:32.102Z,61.17
2018-02-21T21:37:59.696Z,61.20
2018-02-21T21:40:27.298Z,55.97
2018-02-21T21:42:55.663Z,53.80
2018-02-21T21:45:24.046Z,64.85
2018-02-21T21:47:52.406Z,75.93
2018-02-21T21:50:20.016Z,58.00
2018-02-21T21:52:47.619Z,72.62
2018-02-21T21:55:15.202Z,61.55
2018-02-21T21:57:43.588Z,57.03
2018-02-21T22:00:11.949Z,57.62
2018-02-21T22:02:39.521Z,56.70
2018-02-21T22:05:07.912Z,56.33
2018-02-21T22:07:36.249Z,62.13
2018-02-21T22:10:03.825Z,68.62
2018-02-21T22:12:31.461Z,59.17
2018-02-21T22:14:59.027Z,54.35
2018-02-21T22:17:26.601Z,58.87
2018-02-21T22:19:54.202Z,58.05
2018-02-21T22:22:21.798Z,65.05
2018-02-21T22:24:49.391Z,62.13
2018-02-21T22:27:16.990Z,65.72
2018-02-21T22:29:44.579Z,60.35
2018-02-21T22:32:12.207Z,62.38
2018-02-21T22:34:39.799Z,57.65
2018-02-21T22:37:07.374Z,56.28
2018-02-21T22:39:34.968Z,65.30
2018-02-21T22:44:37.322Z,66.05
2018-02-21T22:47:04.921Z,65.32
2018-02-21T22:49:33.371Z,60.65
2018-02-21T22:52:01.016Z,66.60
2018-02-21T22:54:28.617Z,58.85
2018-02-21T22:56:56.957Z,57.38
2018-02-21T22:59:24.554Z,55.90
2018-02-21T23:01:52.878Z,53.80
2018-02-21T23:04:20.478Z,54.92
2018-02-21T23:06:48.053Z,59.78
2018-02-21T23:09:16.424Z,64.07
2018-02-21T23:11:43.992Z,49.03
2018-02-21T23:14:12.382Z,62.97
2018-02-21T23:16:40.721Z,53.60
2018-02-21T23:19:08.305Z,58.58
2018-02-21T23:21:36.712Z,48.28
2018-02-21T23:24:04.288Z,52.75
2018-02-21T23:26:31.894Z,52.95
2018-02-21T23:28:59.458Z,53.13
2018-02-21T23:31:27.024Z,49.97
2018-02-21T23:33:55.381Z,54.42
2018-02-21T23:36:24.459Z,49.63
2018-02-21T23:38:52.054Z,54.90
2018-02-21T23:41:20.405Z,56.85
2018-02-21T23:43:48.027Z,51.58
2018-02-21T23:46:15.605Z,50.88
2018-02-21T23:48:43.199Z,49.60
2018-02-21T23:51:10.760Z,50.42
2018-02-21T23:53:38.352Z,45.35
2018-02-21T23:56:06.718Z,47.35
2018-02-21T23:58:35.050Z,47.83
